Croswell, Michigan
Current Conditions -  °F | °C
As of 11:18 AM on Sunday 23 Nov 2014 (Local Time) from CYZR Reporting Station
Light Rain Light Rain  
Wind Chill: 39°   Ceiling: 700
Heat Index: 45°   Visibility: 6mi
Dew Point: 43°   Wind: 12mph
Humidity: 93%   Direction: 190°S
Pressure: 29.92"   Gusts: NA
Location:  43.28°N, 82.62°W
Report Text: CYZR 231618Z AUTO 19010KT 6SM -RA BR BKN007 OVC075 07/06 A2992 RMK PRESFR SLP135
Loading
Personal Weather Stations






























Interactive Weather Map New forecast layout! Learn more

10-Day Weather Forecast

Advertisements
Track Severe Weather on mobile